Time,TemperatureF,DewpointF,PressureIn,WindDirection,WindDirectionDegrees,WindSpeedMPH,WindSpeedGustMPH,Humidity,HourlyPrecipIn,Conditions,Clouds,dailyrainin,SoftwareType,DateUTC
2013-04-21 00:03:00,38.7,30.5,30.17,SW,235,7.0,11.0,72,0.00,,SKC,0.00,VWS V12.07,2013-04-21 07:03:00,
2013-04-21 00:12:00,38.7,30.5,30.16,SW,226,8.0,11.0,72,0.00,,SKC,0.00,VWS V12.07,2013-04-21 07:12:00,
2013-04-21 00:22:00,38.7,30.8,30.16,SW,221,7.0,14.0,73,0.00,,SKC,0.00,VWS V12.07,2013-04-21 07:22:00,
2013-04-21 00:32:00,38.7,30.8,30.16,SW,216,9.0,16.0,73,0.00,,SKC,0.00,VWS V12.07,2013-04-21 07:32:00,
2013-04-21 00:42:00,38.7,30.8,30.16,SW,217,9.0,16.0,73,0.00,,SKC,0.00,VWS V12.07,2013-04-21 07:42:00,
2013-04-21 00:52:00,38.6,30.7,30.17,SW,221,4.0,16.0,73,0.00,,SKC,0.00,VWS V12.07,2013-04-21 07:52:00,
2013-04-21 01:02:00,38.4,30.5,30.17,SW,220,7.0,14.0,73,0.00,,SKC,0.00,VWS V12.07,2013-04-21 08:02:00,
2013-04-21 01:12:00,38.3,30.8,30.17,SW,231,9.0,14.0,74,0.00,,SKC,0.00,VWS V12.07,2013-04-21 08:12:00,
2013-04-21 01:22:00,38.1,30.6,30.17,SW,236,7.0,16.0,74,0.00,,SKC,0.00,VWS V12.07,2013-04-21 08:22:00,
2013-04-21 01:32:00,38.0,30.5,30.16,SW,233,7.0,13.0,74,0.00,,SKC,0.00,VWS V12.07,2013-04-21 08:32:00,
2013-04-21 01:42:00,37.8,30.3,30.17,WSW,241,10.0,14.0,74,0.00,,SKC,0.00,VWS V12.07,2013-04-21 08:42:00,
2013-04-21 01:52:00,38.1,30.6,30.17,SW,225,11.0,17.0,74,0.00,,SKC,0.00,VWS V12.07,2013-04-21 08:52:00,
2013-04-21 02:02:00,37.8,29.9,30.17,SW,228,8.0,14.0,73,0.00,,SKC,0.00,VWS V12.07,2013-04-21 09:02:00,
2013-04-21 02:12:00,37.7,30.2,30.17,SW,232,7.0,15.0,74,0.00,,SKC,0.00,VWS V12.07,2013-04-21 09:12:00,
2013-04-21 02:22:00,37.4,29.9,30.16,SW,231,11.0,16.0,74,0.00,,SKC,0.00,VWS V12.07,2013-04-21 09:22:00,
2013-04-21 02:32:00,37.3,29.8,30.16,SW,235,6.0,12.0,74,0.00,,SKC,0.00,VWS V12.07,2013-04-21 09:32:00,
2013-04-21 02:42:00,37.1,29.6,30.16,SW,234,5.0,15.0,74,0.00,,SKC,0.00,VWS V12.07,2013-04-21 09:42:00,
2013-04-21 02:52:00,37.1,29.6,30.15,SW,235,6.0,16.0,74,0.00,,SKC,0.00,VWS V12.07,2013-04-21 09:52:00,
2013-04-21 03:02:00,37.1,29.9,30.15,SW,225,9.0,14.0,75,0.00,,SKC,0.00,VWS V12.07,2013-04-21 10:02:00,
2013-04-21 03:12:00,36.8,29.6,30.16,SW,236,7.0,18.0,75,0.00,,SKC,0.00,VWS V12.07,2013-04-21 10:12:00,
2013-04-21 03:22:00,36.5,29.7,30.16,SW,235,9.0,18.0,76,0.00,,SKC,0.00,VWS V12.07,2013-04-21 10:22:00,
2013-04-21 03:32:00,36.6,29.8,30.16,SW,231,8.0,13.0,76,0.00,,SKC,0.00,VWS V12.07,2013-04-21 10:32:00,
2013-04-21 03:42:00,36.4,29.6,30.16,SW,228,7.0,16.0,76,0.00,,SKC,0.00,VWS V12.07,2013-04-21 10:42:00,
2013-04-21 03:52:00,36.4,29.6,30.16,SW,223,14.0,16.0,76,0.00,,SKC,0.00,VWS V12.07,2013-04-21 10:52:00,
2013-04-21 04:02:00,36.1,29.3,30.15,SW,230,4.0,12.0,76,0.00,,SKC,0.00,VWS V12.07,2013-04-21 11:02:00,
2013-04-21 04:12:00,36.0,29.5,30.16,SW,235,4.0,12.0,77,0.00,,SKC,0.00,VWS V12.07,2013-04-21 11:12:00,
2013-04-21 04:22:00,35.8,29.3,30.16,SW,233,6.0,13.0,77,0.00,,SKC,0.00,VWS V12.07,2013-04-21 11:22:00,
2013-04-21 04:32:00,35.7,29.2,30.16,SW,232,8.0,12.0,77,0.00,,SKC,0.00,VWS V12.07,2013-04-21 11:32:00,
2013-04-21 04:42:00,35.5,29.0,30.16,SW,229,13.0,13.0,77,0.00,,SKC,0.00,VWS V12.07,2013-04-21 11:42:00,
2013-04-21 04:52:00,35.7,29.5,30.15,SW,227,10.0,16.0,78,0.00,,SKC,0.00,VWS V12.07,2013-04-21 11:52:00,
2013-04-21 05:02:00,35.6,29.1,30.16,SW,222,10.0,15.0,77,0.00,,SKC,0.00,VWS V12.07,2013-04-21 12:02:00,
2013-04-21 05:12:00,35.4,28.9,30.14,SW,215,11.0,15.0,77,0.00,,SKC,0.00,VWS V12.07,2013-04-21 12:12:00,
2013-04-21 05:22:00,35.2,29.0,30.15,SW,224,5.0,16.0,78,0.00,,SKC,0.00,VWS V12.07,2013-04-21 12:22:00,
2013-04-21 05:32:00,35.4,28.9,30.16,SW,222,9.0,14.0,77,0.00,,SKC,0.00,VWS V12.07,2013-04-21 12:32:00,
2013-04-21 05:42:00,35.4,28.9,30.16,WSW,238,7.0,17.0,77,0.00,,SKC,0.00,VWS V12.07,2013-04-21 12:42:00,
2013-04-21 05:52:00,35.4,28.9,30.15,SW,218,9.0,17.0,77,0.00,,SKC,0.00,VWS V12.07,2013-04-21 12:52:00,
2013-04-21 06:02:00,35.7,29.2,30.15,SW,229,10.0,13.0,77,0.00,,SKC,0.00,VWS V12.07,2013-04-21 13:02:00,
2013-04-21 06:12:00,35.7,29.2,30.15,SW,229,4.0,16.0,77,0.00,,SKC,0.00,VWS V12.07,2013-04-21 13:12:00,
2013-04-21 06:22:00,35.5,29.0,30.17,SW,220,7.0,17.0,77,0.00,,SKC,0.00,VWS V12.07,2013-04-21 13:22:00,
2013-04-21 06:32:00,35.4,28.6,30.17,SW,221,6.0,12.0,76,0.00,,SKC,0.00,VWS V12.07,2013-04-21 13:32:00,
2013-04-21 06:42:00,35.6,28.8,30.15,SW,215,7.0,16.0,76,0.00,,SKC,0.00,VWS V12.07,2013-04-21 13:42:00,
2013-04-21 06:52:00,35.7,28.6,30.16,SW,235,7.0,16.0,75,0.00,,SKC,0.00,VWS V12.07,2013-04-21 13:52:00,
2013-04-21 07:02:00,36.1,29.3,30.16,SW,217,13.0,14.0,76,0.00,,SKC,0.00,VWS V12.07,2013-04-21 14:02:00,
2013-04-21 07:12:00,36.2,29.0,30.16,SW,225,11.0,15.0,75,0.00,,SKC,0.00,VWS V12.07,2013-04-21 14:12:00,
2013-04-21 07:22:00,36.8,29.6,30.17,SW,224,15.0,16.0,75,0.00,,SKC,0.00,VWS V12.07,2013-04-21 14:22:00,
2013-04-21 07:32:00,37.5,29.6,30.16,SW,215,5.0,13.0,73,0.00,,SKC,0.00,VWS V12.07,2013-04-21 14:32:00,
2013-04-21 07:42:00,38.3,30.1,30.16,SSW,205,4.0,16.0,72,0.00,,SKC,0.00,VWS V12.07,2013-04-21 14:42:00,
2013-04-21 07:52:00,38.8,30.2,30.17,SW,215,9.0,18.0,71,0.00,,SKC,0.00,VWS V12.07,2013-04-21 14:52:00,
2013-04-21 08:02:00,39.5,30.2,30.16,SW,232,5.0,16.0,69,0.00,,SKC,0.00,VWS V12.07,2013-04-21 15:02:00,
2013-04-21 08:12:00,40.4,30.7,30.17,SW,225,5.0,16.0,68,0.00,,SKC,0.00,VWS V12.07,2013-04-21 15:12:00,
2013-04-21 08:22:00,41.3,30.4,30.16,SSW,212,7.0,16.0,65,0.00,,SKC,0.00,VWS V12.07,2013-04-21 15:22:00,
2013-04-21 08:32:00,42.1,30.4,30.16,SSW,208,9.0,16.0,63,0.00,,SKC,0.00,VWS V12.07,2013-04-21 15:32:00,
2013-04-21 08:42:00,43.2,30.7,30.16,SSW,206,10.0,16.0,61,0.00,,SKC,0.00,VWS V12.07,2013-04-21 15:42:00,
2013-04-21 08:52:00,43.9,30.5,30.16,SSW,203,3.0,16.0,59,0.00,,SKC,0.00,VWS V12.07,2013-04-21 15:52:00,
2013-04-21 09:02:00,45.0,30.3,30.15,SW,214,4.0,12.0,56,0.00,,SKC,0.00,VWS V12.07,2013-04-21 16:02:00,
2013-04-21 09:12:00,45.8,30.6,30.15,SSW,212,2.0,12.0,55,0.00,,SKC,0.00,VWS V12.07,2013-04-21 16:12:00,
2013-04-21 09:22:00,46.2,30.9,30.15,SW,214,8.0,12.0,55,0.00,,SKC,0.00,VWS V12.07,2013-04-21 16:22:00,
2013-04-21 09:32:00,46.6,30.9,30.17,SW,216,5.0,8.0,54,0.00,,SKC,0.00,VWS V12.07,2013-04-21 16:32:00,
2013-04-21 09:42:00,48.3,30.0,30.15,SSW,195,5.0,8.0,49,0.00,,SKC,0.00,VWS V12.07,2013-04-21 16:42:00,
2013-04-21 09:52:00,48.8,28.4,30.15,South,177,0.0,8.0,45,0.00,,SKC,0.00,VWS V12.07,2013-04-21 16:52:00,
2013-04-21 10:02:00,49.4,29.0,30.16,ESE,109,8.0,8.0,45,0.00,,SKC,0.00,VWS V12.07,2013-04-21 17:02:00,
2013-04-21 10:12:00,49.6,28.6,30.15,SE,142,5.0,10.0,44,0.00,,SKC,0.00,VWS V12.07,2013-04-21 17:12:00,
2013-04-21 10:22:00,49.6,28.0,30.15,ESE,110,2.0,10.0,43,0.00,,SKC,0.00,VWS V12.07,2013-04-21 17:22:00,
2013-04-21 10:32:00,50.0,27.8,30.15,ENE,59,0.0,5.0,42,0.00,,SKC,0.00,VWS V12.07,2013-04-21 17:32:00,
2013-04-21 10:42:00,50.1,27.9,30.16,North,0,6.0,8.0,42,0.00,,SKC,0.00,VWS V12.07,2013-04-21 17:42:00,
2013-04-21 10:52:00,50.0,28.4,30.14,North,1,1.0,9.0,43,0.00,,SKC,0.00,VWS V12.07,2013-04-21 17:52:00,
2013-04-21 11:02:00,51.5,29.8,30.15,North,1,1.0,3.0,43,0.00,,SKC,0.00,VWS V12.07,2013-04-21 18:02:00,
2013-04-21 11:12:00,51.7,30.5,30.15,North,0,2.0,6.0,44,0.00,,SKC,0.00,VWS V12.07,2013-04-21 18:12:00,
2013-04-21 11:22:00,52.2,32.1,30.14,North,356,1.0,6.0,46,0.00,,SKC,0.00,VWS V12.07,2013-04-21 18:22:00,
2013-04-21 11:33:00,52.3,31.6,30.15,NW,320,7.0,9.0,45,0.00,,SKC,0.00,VWS V12.07,2013-04-21 18:33:00,
2013-04-21 11:42:00,52.2,32.1,30.14,East,84,0.0,11.0,46,0.00,,SKC,0.00,VWS V12.07,2013-04-21 18:42:00,
2013-04-21 11:52:00,52.9,32.7,30.13,ESE,115,4.0,11.0,46,0.00,,SKC,0.00,VWS V12.07,2013-04-21 18:52:00,
2013-04-21 12:02:00,53.5,33.8,30.14,ESE,115,3.0,5.0,47,0.00,,SKC,0.00,VWS V12.07,2013-04-21 19:02:00,
2013-04-21 12:12:00,53.1,34.5,30.14,NE,55,0.0,9.0,49,0.00,,SKC,0.00,VWS V12.07,2013-04-21 19:12:00,
2013-04-21 12:22:00,53.1,34.5,30.13,East,87,5.0,9.0,49,0.00,,SKC,0.00,VWS V12.07,2013-04-21 19:22:00,
2013-04-21 12:32:00,53.6,34.9,30.14,East,90,2.0,3.0,49,0.00,,SKC,0.00,VWS V12.07,2013-04-21 19:32:00,
2013-04-21 12:42:00,53.7,34.5,30.14,ENE,78,3.0,9.0,48,0.00,,SKC,0.00,VWS V12.07,2013-04-21 19:42:00,
2013-04-21 12:52:00,53.9,36.2,30.12,ENE,77,0.0,9.0,51,0.00,,SKC,0.00,VWS V12.07,2013-04-21 19:52:00,
2013-04-21 13:02:00,55.3,35.4,30.14,NNW,332,6.0,11.0,47,0.00,,SKC,0.00,VWS V12.07,2013-04-21 20:02:00,
2013-04-21 13:12:00,54.7,35.9,30.13,North,9,6.0,14.0,49,0.00,,SKC,0.00,VWS V12.07,2013-04-21 20:12:00,
2013-04-21 13:22:00,55.6,36.8,30.12,NNE,12,5.0,14.0,49,0.00,,SKC,0.00,VWS V12.07,2013-04-21 20:22:00,
2013-04-21 13:32:00,55.9,36.5,30.12,SE,129,7.0,11.0,48,0.00,,SKC,0.00,VWS V12.07,2013-04-21 20:32:00,
2013-04-21 13:42:00,54.5,35.8,30.11,ESE,104,12.0,16.0,49,0.00,,SKC,0.00,VWS V12.07,2013-04-21 20:42:00,
2013-04-21 13:52:00,55.7,36.3,30.11,East,85,4.0,16.0,48,0.00,,SKC,0.00,VWS V12.07,2013-04-21 20:52:00,
2013-04-21 14:02:00,56.3,36.3,30.13,West,274,12.0,12.0,47,0.00,,SKC,0.00,VWS V12.07,2013-04-21 21:02:00,
2013-04-21 14:12:00,55.6,35.2,30.12,West,268,16.0,21.0,46,0.00,,SKC,0.00,VWS V12.07,2013-04-21 21:12:00,
2013-04-21 14:22:00,56.1,35.6,30.12,West,262,7.0,21.0,46,0.00,,SKC,0.00,VWS V12.07,2013-04-21 21:22:00,
2013-04-21 14:32:00,56.0,35.5,30.11,WSW,237,9.0,12.0,46,0.00,,SKC,0.00,VWS V12.07,2013-04-21 21:32:00,
2013-04-21 14:42:00,56.1,35.6,30.12,West,280,19.0,19.0,46,0.00,,SKC,0.00,VWS V12.07,2013-04-21 21:42:00,
2013-04-21 14:52:00,55.3,36.0,30.13,West,260,7.0,21.0,48,0.00,,SKC,0.00,VWS V12.07,2013-04-21 21:52:00,
2013-04-21 15:02:00,55.3,36.0,30.12,WNW,297,11.0,15.0,48,0.00,,SKC,0.00,VWS V12.07,2013-04-21 22:02:00,
2013-04-21 15:12:00,54.5,35.2,30.13,West,264,9.0,24.0,48,0.00,,SKC,0.00,VWS V12.07,2013-04-21 22:12:00,
2013-04-21 15:22:00,55.0,36.2,30.13,WNW,284,13.0,24.0,49,0.00,,SKC,0.00,VWS V12.07,2013-04-21 22:22:00,
2013-04-21 15:32:00,55.5,36.2,30.11,WNW,282,9.0,14.0,48,0.00,,SKC,0.00,VWS V12.07,2013-04-21 22:32:00,
2013-04-21 15:42:00,54.9,35.6,30.12,West,279,14.0,24.0,48,0.00,,SKC,0.00,VWS V12.07,2013-04-21 22:42:00,
2013-04-21 15:52:00,54.9,35.6,30.13,WNW,285,14.0,24.0,48,0.00,,SKC,0.00,VWS V12.07,2013-04-21 22:52:00,
2013-04-21 16:02:00,55.0,35.7,30.13,West,274,0.0,16.0,48,0.00,,SKC,0.00,VWS V12.07,2013-04-21 23:02:00,
2013-04-21 16:12:00,55.0,35.7,30.12,WNW,289,8.0,18.0,48,0.00,,SKC,0.00,VWS V12.07,2013-04-21 23:12:00,
2013-04-21 16:22:00,55.4,36.1,30.12,NW,304,9.0,22.0,48,0.00,,SKC,0.00,VWS V12.07,2013-04-21 23:22:00,
2013-04-21 16:32:00,55.2,36.4,30.12,West,269,6.0,18.0,49,0.00,,SKC,0.00,VWS V12.07,2013-04-21 23:32:00,
2013-04-21 16:42:00,55.5,36.2,30.12,West,269,5.0,18.0,48,0.00,,SKC,0.00,VWS V12.07,2013-04-21 23:42:00,
2013-04-21 16:52:00,55.0,35.7,30.12,WNW,287,16.0,22.0,48,0.00,,SKC,0.00,VWS V12.07,2013-04-21 23:52:00,
2013-04-21 17:02:00,54.7,35.9,30.13,WSW,256,7.0,12.0,49,0.00,,SKC,0.00,VWS V12.07,2013-04-22 00:02:00,
2013-04-21 17:12:00,55.0,35.2,30.13,West,274,14.0,19.0,47,0.00,,SKC,0.00,VWS V12.07,2013-04-22 00:12:00,
2013-04-21 17:22:00,55.1,35.2,30.13,West,268,7.0,19.0,47,0.00,,SKC,0.00,VWS V12.07,2013-04-22 00:22:00,
2013-04-21 17:32:00,54.8,35.0,30.13,WSW,251,12.0,17.0,47,0.00,,SKC,0.00,VWS V12.07,2013-04-22 00:32:00,
2013-04-21 17:42:00,54.1,35.4,30.11,West,275,16.0,19.0,49,0.00,,SKC,0.00,VWS V12.07,2013-04-22 00:42:00,
2013-04-21 17:52:00,53.6,34.4,30.11,WNW,284,9.0,19.0,48,0.00,,SKC,0.00,VWS V12.07,2013-04-22 00:52:00,
2013-04-21 18:02:00,54.1,35.4,30.12,WNW,291,0.0,14.0,49,0.00,,SKC,0.00,VWS V12.07,2013-04-22 01:02:00,
2013-04-21 18:12:00,53.8,35.1,30.12,WNW,298,3.0,14.0,49,0.00,,SKC,0.00,VWS V12.07,2013-04-22 01:12:00,
2013-04-21 18:22:00,53.8,35.6,30.12,WNW,289,6.0,14.0,50,0.00,,SKC,0.00,VWS V12.07,2013-04-22 01:22:00,
2013-04-21 18:32:00,53.5,34.8,30.13,WNW,301,8.0,12.0,49,0.00,,SKC,0.00,VWS V12.07,2013-04-22 01:32:00,
2013-04-21 18:42:00,53.4,36.2,30.12,WNW,303,3.0,12.0,52,0.00,,SKC,0.00,VWS V12.07,2013-04-22 01:42:00,
2013-04-21 18:52:00,52.9,34.8,30.11,West,280,9.0,12.0,50,0.00,,SKC,0.00,VWS V12.07,2013-04-22 01:52:00,
2013-04-21 19:02:00,52.2,35.1,30.11,NW,326,5.0,7.0,52,0.00,,SKC,0.00,VWS V12.07,2013-04-22 02:02:00,
2013-04-21 19:12:00,51.8,34.8,30.12,SW,234,8.0,16.0,52,0.00,,SKC,0.00,VWS V12.07,2013-04-22 02:12:00,
2013-04-21 19:22:00,51.3,36.2,30.13,WSW,245,4.0,16.0,56,0.00,,SKC,0.00,VWS V12.07,2013-04-22 02:22:00,
2013-04-21 19:32:00,50.5,35.8,30.13,WSW,241,6.0,9.0,57,0.00,,SKC,0.00,VWS V12.07,2013-04-22 02:32:00,
2013-04-21 19:42:00,49.1,35.8,30.12,WSW,242,5.0,11.0,60,0.00,,SKC,0.00,VWS V12.07,2013-04-22 02:42:00,
2013-04-21 19:52:00,48.2,35.4,30.12,WSW,244,3.0,11.0,61,0.00,,SKC,0.00,VWS V12.07,2013-04-22 02:52:00,
2013-04-21 20:02:00,47.6,34.8,30.11,West,271,2.0,10.0,61,0.00,,SKC,0.00,VWS V12.07,2013-04-22 03:02:00,
2013-04-21 20:12:00,47.4,35.5,30.11,WSW,240,3.0,11.0,63,0.00,,SKC,0.00,VWS V12.07,2013-04-22 03:12:00,
2013-04-21 20:22:00,46.8,35.3,30.13,SW,236,0.0,11.0,64,0.00,,SKC,0.00,VWS V12.07,2013-04-22 03:22:00,
2013-04-21 20:32:00,46.1,35.4,30.13,SW,236,3.0,3.0,66,0.00,,SKC,0.00,VWS V12.07,2013-04-22 03:32:00,
2013-04-21 20:42:00,45.8,35.8,30.13,South,183,4.0,7.0,68,0.00,,SKC,0.00,VWS V12.07,2013-04-22 03:42:00,
2013-04-21 20:52:00,45.8,35.5,30.16,SE,137,5.0,9.0,67,0.00,,SKC,0.00,VWS V12.07,2013-04-22 03:52:00,
2013-04-21 21:02:00,45.5,35.6,30.15,SSE,163,4.0,9.0,68,0.00,,SKC,0.00,VWS V12.07,2013-04-22 04:02:00,
2013-04-21 21:12:00,45.3,35.7,30.14,SW,220,3.0,13.0,69,0.00,,SKC,0.00,VWS V12.07,2013-04-22 04:12:00,
2013-04-21 21:22:00,44.8,35.6,30.14,SW,224,2.0,13.0,70,0.00,,SKC,0.00,VWS V12.07,2013-04-22 04:22:00,
2013-04-21 21:32:00,44.8,35.6,30.15,SW,229,3.0,7.0,70,0.00,,SKC,0.00,VWS V12.07,2013-04-22 04:32:00,
2013-04-21 21:42:00,44.8,35.6,30.15,SW,232,2.0,7.0,70,0.00,,SKC,0.00,VWS V12.07,2013-04-22 04:42:00,
2013-04-21 21:52:00,44.4,35.2,30.15,SW,232,2.0,7.0,70,0.00,,SKC,0.00,VWS V12.07,2013-04-22 04:52:00,
2013-04-21 22:02:00,44.1,35.3,30.16,SW,232,2.0,5.0,71,0.00,,SKC,0.00,VWS V12.07,2013-04-22 05:02:00,
2013-04-21 22:12:00,43.9,35.1,30.16,SW,232,1.0,5.0,71,0.00,,SKC,0.00,VWS V12.07,2013-04-22 05:12:00,
2013-04-21 22:22:00,44.0,35.2,30.15,SW,232,0.0,5.0,71,0.00,,SKC,0.00,VWS V12.07,2013-04-22 05:22:00,
2013-04-21 22:32:00,43.5,34.7,30.15,SW,232,3.0,4.0,71,0.00,,SKC,0.00,VWS V12.07,2013-04-22 05:32:00,
2013-04-21 22:42:00,43.2,34.5,30.17,SW,232,2.0,5.0,71,0.00,,SKC,0.00,VWS V12.07,2013-04-22 05:42:00,
2013-04-21 22:52:00,42.8,34.1,30.15,SW,234,3.0,7.0,71,0.00,,SKC,0.00,VWS V12.07,2013-04-22 05:52:00,
2013-04-21 23:02:00,42.0,33.3,30.17,SW,234,0.0,5.0,71,0.00,,SKC,0.00,VWS V12.07,2013-04-22 06:02:00,
2013-04-21 23:12:00,41.1,33.1,30.17,SW,234,2.0,5.0,73,0.00,,SKC,0.00,VWS V12.07,2013-04-22 06:12:00,
2013-04-21 23:22:00,40.5,33.9,30.17,NNE,15,7.0,12.0,77,0.00,,SKC,0.00,VWS V12.07,2013-04-22 06:22:00,
2013-04-21 23:32:00,40.8,34.2,30.18,NNE,23,5.0,8.0,77,0.00,,SKC,0.00,VWS V12.07,2013-04-22 06:32:00,
2013-04-21 23:42:00,40.8,34.2,30.17,NNE,33,6.0,9.0,77,0.00,,SKC,0.00,VWS V12.07,2013-04-22 06:42:00,
2013-04-21 23:52:00,40.8,34.2,30.17,NNE,31,2.0,9.0,77,0.00,,SKC,0.00,VWS V12.07,2013-04-22 06:52:00,